This is the latest recevied weather packets stored in our database for station/object W8XLR-2. If no packets are shown the sender has not sent any weather packets the latest 1 day(s).
| Time | Temp. | Humidity | Pressure | Rain* | Wind** | Luminosity | Snow |
|---|---|---|---|---|---|---|---|
| 1778007412 | 21.11° C | 59% | 1010.6 hPa | 0 mm | 1.79 m/s, 260° | - | - |
| 1778007006 | 21.11° C | 59% | 1010.6 hPa | 0 mm | 1.79 m/s, 260° | - | - |
| 1778006811 | 21.11° C | 59% | 1010.6 hPa | 0 mm | 1.79 m/s, 260° | - | - |
| 1778006214 | 21.11° C | 59% | 1010.4 hPa | 0 mm | 1.79 m/s, 254° | - | - |
| 1778005607 | 21.11° C | 59% | 1010.3 hPa | 0 mm | 2.24 m/s, 243° | - | - |
| 1778005007 | 21.11° C | 59% | 1010.3 hPa | 0 mm | 2.24 m/s, 243° | - | - |
| 1778004411 | 21.67° C | 58% | 1010.2 hPa | 0 mm | 1.79 m/s, 248° | - | - |
| 1778003808 | 20.56° C | 61% | 1010.2 hPa | 0 mm | 1.34 m/s, 254° | - | - |
| 1778003208 | 20.56° C | 61% | 1010.2 hPa | 0 mm | 1.34 m/s, 254° | - | - |
| 1778002608 | 20.56° C | 60% | 1010.2 hPa | 0 mm | 1.34 m/s, 259° | - | - |
| 1778002010 | 21.11° C | 60% | 1010.1 hPa | 0 mm | 1.79 m/s, 260° | - | - |
| 1778001407 | 21.11° C | 60% | 1010.1 hPa | 0 mm | 1.79 m/s, 260° | - | - |
| 1778000808 | 21.67° C | 58% | 1010.3 hPa | 0 mm | 1.79 m/s, 238° | - | - |
| 1778000260 | 21.67° C | 59% | 1010.2 hPa | 0 mm | 1.79 m/s, 245° | - | - |
| 1778000208 | 21.67° C | 59% | 1010.2 hPa | 0 mm | 1.79 m/s, 245° | - | - |
| 1777999610 | 21.67° C | 59% | 1010.2 hPa | 0 mm | 1.79 m/s, 245° | - | - |
| 1777999010 | 21.67° C | 58% | 1010.3 hPa | 0 mm | 1.79 m/s, 255° | - | - |
| 1777998411 | 21.11° C | 62% | 1009.9 hPa | 0 mm | 0.89 m/s, 263° | - | - |
| 1777997809 | 21.11° C | 62% | 1009.9 hPa | 0 mm | 0.89 m/s, 263° | - | - |
| 1777997208 | 21.11° C | 62% | 1010.1 hPa | 0 mm | 2.24 m/s, 251° | - | - |
| 1777996608 | 20° C | 63% | 1010.4 hPa | 0 mm | 1.79 m/s, 252° | - | - |
| 1777996009 | 20° C | 63% | 1010.4 hPa | 0 mm | 1.79 m/s, 252° | - | - |
| 1777995408 | 20° C | 64% | 1010.4 hPa | 0 mm | 1.34 m/s, 257° | - | - |
| 1777994846 | 20° C | 68% | 1010.4 hPa | 0 mm | 2.24 m/s, 257° | - | - |
| 1777994807 | 20° C | 68% | 1010.4 hPa | 0 mm | 2.24 m/s, 257° | - | - |
* Rain latest hour (hover to see other rain measurements)
** Current wind speed in m/s (hover to see current wind gust speed)